createdAt,value
2023-01-30T00:00:39.405Z,5.80
2023-01-30T00:03:09.173Z,5.80
2023-01-30T00:05:37.641Z,5.80
2023-01-30T00:08:06.412Z,5.90
2023-01-30T00:10:35.163Z,5.90
2023-01-30T00:13:06.433Z,5.90
2023-01-30T00:15:36.061Z,6.00
2023-01-30T00:18:04.882Z,6.00
2023-01-30T00:20:34.790Z,6.00
2023-01-30T00:23:03.279Z,6.00
2023-01-30T00:25:31.914Z,6.00
2023-01-30T00:28:01.973Z,6.10
2023-01-30T00:30:30.885Z,6.10
2023-01-30T00:33:00.386Z,6.10
2023-01-30T00:35:31.878Z,6.10
2023-01-30T00:38:02.012Z,6.20
2023-01-30T00:40:31.271Z,6.10
2023-01-30T00:43:13.654Z,6.20
2023-01-30T00:46:03.930Z,6.20
2023-01-30T00:48:33.457Z,6.20
2023-01-30T00:51:02.102Z,6.10
2023-01-30T00:53:32.235Z,6.20
2023-01-30T00:56:00.983Z,6.20
2023-01-30T00:58:29.695Z,6.20
2023-01-30T01:00:58.187Z,6.20
2023-01-30T01:03:26.767Z,6.10
2023-01-30T01:05:55.212Z,6.20
2023-01-30T01:08:23.597Z,6.20
2023-01-30T01:10:53.482Z,6.20
2023-01-30T01:13:21.876Z,6.20
2023-01-30T01:15:51.682Z,6.20
2023-01-30T01:18:21.359Z,6.20
2023-01-30T01:20:49.784Z,6.20
2023-01-30T01:23:18.284Z,6.20
2023-01-30T01:25:47.291Z,6.20
2023-01-30T01:28:21.804Z,6.30
2023-01-30T01:30:50.485Z,6.20
2023-01-30T01:33:19.044Z,6.30
2023-01-30T01:35:48.530Z,6.30
2023-01-30T01:38:16.943Z,6.30
2023-01-30T01:41:06.496Z,6.30
2023-01-30T01:43:38.272Z,6.30
2023-01-30T01:46:16.318Z,6.30
2023-01-30T01:48:49.788Z,6.40
2023-01-30T01:51:21.694Z,6.40
2023-01-30T01:53:56.423Z,6.40
2023-01-30T01:56:25.526Z,6.40
2023-01-30T01:58:59.264Z,6.40
2023-01-30T02:01:28.124Z,6.50
2023-01-30T02:04:02.013Z,6.50
2023-01-30T02:06:31.656Z,6.50
2023-01-30T02:09:03.601Z,6.50
2023-01-30T02:11:38.272Z,6.50
2023-01-30T02:14:08.808Z,6.50
2023-01-30T02:16:38.273Z,6.60
2023-01-30T02:19:27.044Z,6.60
2023-01-30T02:22:33.297Z,6.60
2023-01-30T02:25:27.546Z,6.60
2023-01-30T02:28:22.399Z,6.60
2023-01-30T02:31:11.207Z,6.60
2023-01-30T02:33:49.641Z,6.60
2023-01-30T02:36:25.493Z,6.60
2023-01-30T02:39:03.303Z,6.60
2023-01-30T02:41:41.104Z,6.60
2023-01-30T02:44:19.172Z,6.60
2023-01-30T02:46:55.878Z,6.60
2023-01-30T02:49:29.932Z,6.60
2023-01-30T02:52:01.479Z,6.60
2023-01-30T02:54:29.911Z,6.60
2023-01-30T02:57:00.325Z,6.60
2023-01-30T02:59:33.589Z,6.50
2023-01-30T03:03:07.117Z,6.50
2023-01-30T03:05:55.058Z,6.40
2023-01-30T03:08:33.093Z,6.50
2023-01-30T03:11:04.501Z,6.40
2023-01-30T03:13:44.112Z,6.40
2023-01-30T03:16:17.086Z,6.30
2023-01-30T03:18:47.664Z,6.30
2023-01-30T03:21:16.628Z,6.30
2023-01-30T03:23:46.956Z,6.30
2023-01-30T03:26:21.400Z,6.30
2023-01-30T03:28:52.794Z,6.20
2023-01-30T03:31:21.306Z,6.20
2023-01-30T03:33:54.153Z,6.20
2023-01-30T03:36:22.676Z,6.20
2023-01-30T03:38:53.061Z,6.20
2023-01-30T03:41:21.803Z,6.20
2023-01-30T03:44:05.441Z,6.20
2023-01-30T03:46:34.039Z,6.20
2023-01-30T03:49:03.883Z,6.20
2023-01-30T03:51:32.277Z,6.20
2023-01-30T03:54:00.709Z,6.10
2023-01-30T03:56:29.132Z,6.10
2023-01-30T03:58:57.703Z,6.10
2023-01-30T04:01:53.819Z,6.10
2023-01-30T04:04:24.745Z,6.10
2023-01-30T04:06:53.183Z,6.10
2023-01-30T04:09:21.869Z,6.10
2023-01-30T04:11:52.563Z,6.00
2023-01-30T04:14:21.182Z,6.00
2023-01-30T04:16:49.716Z,6.00
2023-01-30T04:19:18.228Z,5.90
2023-01-30T04:21:48.075Z,5.90
2023-01-30T04:24:16.613Z,5.90
2023-01-30T04:26:46.181Z,5.90
2023-01-30T04:29:14.716Z,5.90
2023-01-30T04:31:43.185Z,5.90
2023-01-30T04:34:11.645Z,5.90
2023-01-30T04:36:40.139Z,5.90
2023-01-30T04:39:10.255Z,5.80
2023-01-30T04:41:38.703Z,5.80
2023-01-30T04:44:07.117Z,5.80
2023-01-30T04:46:35.941Z,5.80
2023-01-30T04:49:05.596Z,5.80
2023-01-30T04:51:34.084Z,5.80
2023-01-30T04:54:02.597Z,5.90
2023-01-30T04:56:32.485Z,5.90
2023-01-30T04:59:01.016Z,5.80
2023-01-30T05:01:37.093Z,5.80
2023-01-30T05:04:06.363Z,5.70
2023-01-30T05:06:36.632Z,5.60
2023-01-30T05:09:05.943Z,5.60
2023-01-30T05:11:38.896Z,5.60
2023-01-30T05:14:07.286Z,5.60
2023-01-30T05:16:35.733Z,5.60
2023-01-30T05:19:04.202Z,5.60
2023-01-30T05:21:32.735Z,5.60
2023-01-30T05:24:01.304Z,5.60
2023-01-30T05:26:29.748Z,5.60
2023-01-30T05:28:59.947Z,5.60
2023-01-30T05:31:28.433Z,5.60
2023-01-30T05:34:03.156Z,5.60
2023-01-30T05:36:31.662Z,5.60
2023-01-30T05:39:00.123Z,5.60
2023-01-30T05:41:28.604Z,5.60
2023-01-30T05:43:58.396Z,5.50
2023-01-30T05:46:26.894Z,5.50
2023-01-30T05:48:55.640Z,5.50
2023-01-30T05:51:28.455Z,5.50
2023-01-30T05:53:56.753Z,5.40
2023-01-30T05:56:26.523Z,5.40
2023-01-30T05:58:56.987Z,5.40
2023-01-30T06:01:28.034Z,5.40
2023-01-30T06:03:57.221Z,5.50
2023-01-30T06:06:26.565Z,5.50
2023-01-30T06:08:59.176Z,5.50
2023-01-30T06:11:27.971Z,5.50
2023-01-30T06:13:57.510Z,5.50
2023-01-30T06:16:27.446Z,5.50
2023-01-30T06:18:58.624Z,5.50
2023-01-30T06:21:27.124Z,5.50
2023-01-30T06:23:55.665Z,5.60
2023-01-30T06:26:24.186Z,5.60
2023-01-30T06:28:52.687Z,5.60
2023-01-30T06:31:21.244Z,5.60
2023-01-30T06:33:51.144Z,5.60
2023-01-30T06:36:19.622Z,5.60
2023-01-30T06:38:48.864Z,5.50
2023-01-30T06:41:29.505Z,5.50
2023-01-30T06:43:57.996Z,5.50
2023-01-30T06:46:26.522Z,5.50
2023-01-30T06:48:56.344Z,5.50
2023-01-30T06:51:27.225Z,5.50
2023-01-30T06:53:55.872Z,5.50
2023-01-30T06:56:24.334Z,5.50
2023-01-30T06:58:52.849Z,5.50
2023-01-30T07:01:21.492Z,5.50
2023-01-30T07:03:50.163Z,5.50
2023-01-30T07:06:20.189Z,5.60
2023-01-30T07:08:48.684Z,5.60
2023-01-30T07:11:17.075Z,5.70
2023-01-30T07:13:45.561Z,5.60
2023-01-30T07:16:15.165Z,5.60
2023-01-30T07:18:43.664Z,5.70
2023-01-30T07:21:12.176Z,5.70
2023-01-30T07:23:42.069Z,5.70
2023-01-30T07:26:15.613Z,5.70
2023-01-30T07:28:44.138Z,5.70
2023-01-30T07:31:12.727Z,5.80
2023-01-30T07:33:41.236Z,5.80
2023-01-30T07:36:10.418Z,5.80
2023-01-30T07:38:43.567Z,5.80
2023-01-30T07:41:12.128Z,5.70
2023-01-30T07:43:40.604Z,5.70
2023-01-30T07:46:09.097Z,5.70
2023-01-30T07:48:49.465Z,5.80
2023-01-30T07:51:17.944Z,5.80
2023-01-30T07:53:51.441Z,5.80
2023-01-30T07:56:21.686Z,5.80
2023-01-30T07:58:50.176Z,5.90
2023-01-30T08:01:19.196Z,5.80
2023-01-30T08:03:49.346Z,5.80
2023-01-30T08:06:18.270Z,5.80
2023-01-30T08:08:48.093Z,5.70
2023-01-30T08:11:16.812Z,5.80
2023-01-30T08:13:45.298Z,5.80
2023-01-30T08:16:13.951Z,5.80
2023-01-30T08:18:42.527Z,5.90
2023-01-30T08:21:11.855Z,6.00
2023-01-30T08:23:40.265Z,6.20
2023-01-30T08:26:10.166Z,6.20
2023-01-30T08:28:38.680Z,6.10
2023-01-30T08:31:12.278Z,6.10
2023-01-30T08:33:40.971Z,6.10
2023-01-30T08:36:10.139Z,6.10
2023-01-30T08:38:38.800Z,6.20
2023-01-30T08:41:09.816Z,6.30
2023-01-30T08:43:38.300Z,6.30
2023-01-30T08:46:07.225Z,6.30
2023-01-30T08:48:49.216Z,6.40
2023-01-30T08:51:20.117Z,6.60
2023-01-30T08:53:48.559Z,6.80
2023-01-30T08:56:18.569Z,7.10
2023-01-30T08:58:47.226Z,7.30
2023-01-30T09:01:15.884Z,7.30
2023-01-30T09:03:44.759Z,7.30
2023-01-30T09:06:13.248Z,7.20
2023-01-30T09:08:41.644Z,7.10
2023-01-30T09:11:48.019Z,7.10
2023-01-30T09:14:22.393Z,7.10
2023-01-30T09:16:55.953Z,7.00
2023-01-30T09:19:25.058Z,7.00
2023-01-30T09:21:54.239Z,6.90
2023-01-30T09:24:27.669Z,7.00
2023-01-30T09:26:59.114Z,7.00
2023-01-30T09:29:28.475Z,7.00
2023-01-30T09:31:57.848Z,7.00
2023-01-30T09:34:29.721Z,7.00
2023-01-30T09:37:00.338Z,6.90
2023-01-30T09:39:29.420Z,6.90
2023-01-30T09:42:51.349Z,6.90
2023-01-30T09:45:40.859Z,6.90
2023-01-30T09:48:18.016Z,6.80
2023-01-30T09:51:17.913Z,6.90
2023-01-30T09:54:01.292Z,7.20
2023-01-30T09:56:38.677Z,7.10
2023-01-30T09:59:16.411Z,7.00
2023-01-30T10:01:55.046Z,6.70
2023-01-30T10:04:31.042Z,6.50
2023-01-30T10:07:12.281Z,6.40
2023-01-30T10:09:49.630Z,6.30
2023-01-30T10:12:30.106Z,6.20
2023-01-30T10:15:20.274Z,6.10
2023-01-30T10:18:12.089Z,5.80
2023-01-30T10:20:47.503Z,5.60
2023-01-30T10:23:32.706Z,5.50
2023-01-30T10:26:06.251Z,5.50
2023-01-30T10:28:39.930Z,5.40
2023-01-30T10:31:14.016Z,5.40
2023-01-30T10:33:50.502Z,5.40
2023-01-30T10:36:24.720Z,5.50
2023-01-30T10:38:55.848Z,5.60
2023-01-30T10:41:29.949Z,5.70
2023-01-30T10:44:04.376Z,5.80
2023-01-30T10:46:56.607Z,5.90
2023-01-30T10:49:38.110Z,6.00
2023-01-30T10:52:20.273Z,6.10
2023-01-30T10:54:55.990Z,6.20
2023-01-30T10:57:33.721Z,6.30
2023-01-30T11:00:05.284Z,6.30
2023-01-30T11:02:42.410Z,7.10
2023-01-30T11:05:17.072Z,8.50
2023-01-30T11:07:48.652Z,10.10
2023-01-30T11:10:20.460Z,11.10
2023-01-30T11:12:49.270Z,11.20
2023-01-30T11:15:18.089Z,11.00
2023-01-30T11:17:48.220Z,11.80
2023-01-30T11:20:20.426Z,12.20
2023-01-30T11:22:55.222Z,11.30
2023-01-30T11:25:24.657Z,10.40
2023-01-30T11:28:01.320Z,9.80
2023-01-30T11:30:31.053Z,9.30
2023-01-30T11:33:13.477Z,9.00
2023-01-30T11:35:54.438Z,8.60
2023-01-30T11:38:25.224Z,8.00
2023-01-30T11:41:08.724Z,7.40
2023-01-30T11:43:39.738Z,7.10
2023-01-30T11:46:10.349Z,7.10
2023-01-30T11:49:02.654Z,6.90
2023-01-30T11:51:38.684Z,6.70
2023-01-30T11:54:12.721Z,6.70
2023-01-30T11:56:43.801Z,6.70
2023-01-30T11:59:25.608Z,7.10
2023-01-30T12:02:06.356Z,7.20
2023-01-30T12:04:36.396Z,7.20
2023-01-30T12:07:17.591Z,7.30
2023-01-30T12:09:46.436Z,7.90
2023-01-30T12:12:29.373Z,8.20
2023-01-30T12:15:06.291Z,8.20
2023-01-30T12:17:44.141Z,8.10
2023-01-30T12:20:22.644Z,8.00
2023-01-30T12:23:01.986Z,8.00
2023-01-30T12:25:39.773Z,8.10
2023-01-30T12:28:16.239Z,8.30
2023-01-30T12:30:51.256Z,8.50
2023-01-30T12:33:19.831Z,8.50
2023-01-30T12:35:59.923Z,8.50
2023-01-30T12:38:41.051Z,8.30
2023-01-30T12:41:28.984Z,8.10
2023-01-30T12:44:20.198Z,8.00
2023-01-30T12:47:00.726Z,8.00
2023-01-30T12:49:52.874Z,7.90
2023-01-30T12:52:46.754Z,7.90
2023-01-30T12:55:27.540Z,8.00
2023-01-30T12:58:01.656Z,8.10
2023-01-30T13:00:43.619Z,8.00
2023-01-30T13:03:26.357Z,7.80
2023-01-30T13:06:04.122Z,7.60
2023-01-30T13:08:44.730Z,7.50
2023-01-30T13:11:29.477Z,7.40
2023-01-30T13:14:05.312Z,7.20
2023-01-30T13:16:44.279Z,7.10
2023-01-30T13:19:21.104Z,7.10
2023-01-30T13:22:01.294Z,7.10
2023-01-30T13:24:41.149Z,7.30
2023-01-30T13:27:16.109Z,7.60
2023-01-30T13:29:45.697Z,7.80
2023-01-30T13:32:17.881Z,8.10
2023-01-30T13:34:49.598Z,8.20
2023-01-30T13:37:19.255Z,8.30
2023-01-30T13:39:52.933Z,8.30
2023-01-30T13:42:29.485Z,8.20
2023-01-30T13:44:59.040Z,8.10
2023-01-30T13:47:45.619Z,8.10
2023-01-30T13:50:28.247Z,8.00
2023-01-30T13:53:01.008Z,8.10
2023-01-30T13:55:40.351Z,8.10
2023-01-30T13:58:27.718Z,8.10
2023-01-30T14:00:57.519Z,8.10
2023-01-30T14:03:31.674Z,8.20
2023-01-30T14:06:38.225Z,8.30
2023-01-30T14:09:27.769Z,8.40
2023-01-30T14:12:01.799Z,8.50
2023-01-30T14:14:33.542Z,8.50
2023-01-30T14:17:14.472Z,8.50
2023-01-30T14:19:46.387Z,8.60
2023-01-30T14:22:24.681Z,8.70
2023-01-30T14:25:33.788Z,8.70
2023-01-30T14:28:51.139Z,8.60
2023-01-30T14:31:54.848Z,8.50
2023-01-30T14:34:51.546Z,8.70
2023-01-30T14:37:31.585Z,8.70
2023-01-30T14:40:01.054Z,8.50
2023-01-30T14:42:31.177Z,8.30
2023-01-30T14:45:01.982Z,8.20
2023-01-30T14:47:42.247Z,8.00
2023-01-30T14:50:22.087Z,7.90
2023-01-30T14:52:57.697Z,7.80
2023-01-30T14:55:29.844Z,7.70
2023-01-30T14:58:02.602Z,7.60
2023-01-30T15:00:36.245Z,7.60
2023-01-30T15:03:10.690Z,7.50
2023-01-30T15:05:44.858Z,7.50
2023-01-30T15:08:18.166Z,7.40
2023-01-30T15:10:59.776Z,7.40
2023-01-30T15:13:47.825Z,7.30
2023-01-30T15:16:40.552Z,7.30
2023-01-30T15:19:26.950Z,7.30
2023-01-30T15:22:11.578Z,7.20
2023-01-30T15:24:56.157Z,7.20
2023-01-30T15:27:32.150Z,7.10
2023-01-30T15:30:24.293Z,7.00
2023-01-30T15:33:12.718Z,7.00
2023-01-30T15:35:50.170Z,6.90
2023-01-30T15:38:28.966Z,6.80
2023-01-30T15:41:08.594Z,6.80
2023-01-30T15:43:55.094Z,6.80
2023-01-30T15:46:37.441Z,6.80
2023-01-30T15:49:37.181Z,6.80
2023-01-30T15:52:10.873Z,6.80
2023-01-30T15:54:39.847Z,6.70
2023-01-30T15:57:19.417Z,6.70
2023-01-30T15:59:51.654Z,6.60
2023-01-30T16:02:27.835Z,6.50
2023-01-30T16:05:16.103Z,6.40
2023-01-30T16:07:47.511Z,6.40
2023-01-30T16:10:19.103Z,6.40
2023-01-30T16:12:48.823Z,6.40
2023-01-30T16:15:51.065Z,6.40
2023-01-30T16:18:36.530Z,6.40
2023-01-30T16:21:07.887Z,6.40
2023-01-30T16:23:46.600Z,6.30
2023-01-30T16:26:24.850Z,6.30
2023-01-30T16:29:04.411Z,6.20
2023-01-30T16:31:36.833Z,6.20
2023-01-30T16:34:06.496Z,6.10
2023-01-30T16:36:42.039Z,6.10
2023-01-30T16:39:32.236Z,6.10
2023-01-30T16:42:05.502Z,6.20
2023-01-30T16:44:34.709Z,6.20
2023-01-30T16:47:06.386Z,6.20
2023-01-30T16:49:45.584Z,6.20
2023-01-30T16:52:21.731Z,6.20
2023-01-30T16:54:54.302Z,6.30
2023-01-30T16:57:36.540Z,6.30
2023-01-30T17:00:23.711Z,6.30
2023-01-30T17:02:57.551Z,6.20
2023-01-30T17:05:35.024Z,6.20
2023-01-30T17:08:09.424Z,6.10
2023-01-30T17:11:00.808Z,6.10
2023-01-30T17:13:37.134Z,6.00
2023-01-30T17:16:37.736Z,5.90
2023-01-30T17:19:15.041Z,5.90
2023-01-30T17:21:53.340Z,5.80
2023-01-30T17:24:26.513Z,5.80
2023-01-30T17:27:05.561Z,5.80
2023-01-30T17:29:43.960Z,5.80
2023-01-30T17:32:20.840Z,5.90
2023-01-30T17:34:50.351Z,5.80
2023-01-30T17:37:21.546Z,5.90
2023-01-30T17:39:53.424Z,5.90
2023-01-30T17:42:28.181Z,6.00
2023-01-30T17:47:45.841Z,5.90
2023-01-30T17:50:17.691Z,5.90
2023-01-30T17:52:51.559Z,5.80
2023-01-30T17:55:27.479Z,5.70
2023-01-30T17:57:59.885Z,5.70
2023-01-30T18:00:28.770Z,5.70
2023-01-30T18:03:01.029Z,5.70
2023-01-30T18:05:30.540Z,5.70
2023-01-30T18:08:02.021Z,5.60
2023-01-30T18:10:33.510Z,5.60
2023-01-30T18:13:05.060Z,5.60
2023-01-30T18:15:34.635Z,5.60
2023-01-30T18:18:07.590Z,5.50
2023-01-30T18:20:39.821Z,5.50
2023-01-30T18:23:23.021Z,5.50
2023-01-30T18:26:00.965Z,5.50
2023-01-30T18:28:36.951Z,5.50
2023-01-30T18:31:12.733Z,5.50
2023-01-30T18:33:44.897Z,5.40
2023-01-30T18:36:19.577Z,5.40
2023-01-30T18:38:53.822Z,5.40
2023-01-30T18:41:28.281Z,5.40
2023-01-30T18:44:03.706Z,5.40
2023-01-30T18:46:33.119Z,5.40
2023-01-30T18:49:02.479Z,5.40
2023-01-30T18:51:38.851Z,5.40
2023-01-30T18:54:10.621Z,5.50
2023-01-30T18:56:54.370Z,5.40
2023-01-30T18:59:28.318Z,5.40
2023-01-30T19:01:57.508Z,5.40
2023-01-30T19:04:35.741Z,5.30
2023-01-30T19:07:11.361Z,5.30
2023-01-30T19:09:46.155Z,5.30
2023-01-30T19:12:32.681Z,5.30
2023-01-30T19:15:05.881Z,5.30
2023-01-30T19:17:38.880Z,5.30
2023-01-30T19:20:11.273Z,5.30
2023-01-30T19:22:42.730Z,5.20
2023-01-30T19:25:30.099Z,5.20
2023-01-30T19:28:00.610Z,5.20
2023-01-30T19:30:32.081Z,5.30
2023-01-30T19:33:07.845Z,5.30
2023-01-30T19:35:40.922Z,5.30
2023-01-30T19:38:11.072Z,5.30
2023-01-30T19:40:51.174Z,5.30
2023-01-30T19:43:24.803Z,5.30
2023-01-30T19:46:03.605Z,5.30
2023-01-30T19:48:42.685Z,5.20
2023-01-30T19:51:24.071Z,5.20
2023-01-30T19:53:58.650Z,5.20
2023-01-30T19:56:31.755Z,5.20
2023-01-30T19:59:04.485Z,5.20
2023-01-30T20:01:38.180Z,5.10
2023-01-30T20:04:09.928Z,5.20
2023-01-30T20:06:42.815Z,5.10
2023-01-30T20:09:16.467Z,5.10
2023-01-30T20:11:45.434Z,5.00
2023-01-30T20:14:14.793Z,5.10
2023-01-30T20:16:45.512Z,5.10
2023-01-30T20:19:16.242Z,5.20
2023-01-30T20:21:46.930Z,5.30
2023-01-30T20:24:16.656Z,5.30
2023-01-30T20:26:51.480Z,5.30
2023-01-30T20:29:23.875Z,5.40
2023-01-30T20:31:55.848Z,5.50
2023-01-30T20:34:24.435Z,5.40
2023-01-30T20:36:53.068Z,5.40
2023-01-30T20:39:22.213Z,5.30
2023-01-30T20:41:50.731Z,5.20
2023-01-30T20:44:20.636Z,5.20
2023-01-30T20:46:49.948Z,5.10
2023-01-30T20:49:21.770Z,5.10
2023-01-30T20:51:52.300Z,5.10
2023-01-30T20:54:22.875Z,5.10
2023-01-30T20:56:53.784Z,5.10
2023-01-30T20:59:24.501Z,5.00
2023-01-30T21:01:53.721Z,4.90
2023-01-30T21:04:25.462Z,5.00
2023-01-30T21:06:54.176Z,5.00
2023-01-30T21:09:23.983Z,5.00
2023-01-30T21:11:53.505Z,5.00
2023-01-30T21:14:22.695Z,5.10
2023-01-30T21:16:51.834Z,5.10
2023-01-30T21:19:20.488Z,5.20
2023-01-30T21:21:57.394Z,5.20
2023-01-30T21:24:28.182Z,5.20
2023-01-30T21:26:57.895Z,5.30
2023-01-30T21:29:28.038Z,5.30
2023-01-30T21:31:57.615Z,5.30
2023-01-30T21:34:26.387Z,5.30
2023-01-30T21:37:13.822Z,5.30
2023-01-30T21:39:59.843Z,5.40
2023-01-30T21:42:45.668Z,5.40
2023-01-30T21:45:14.153Z,5.30
2023-01-30T21:47:42.970Z,5.30
2023-01-30T21:50:12.274Z,5.30
2023-01-30T21:52:42.374Z,5.30
2023-01-30T21:55:11.312Z,5.30
2023-01-30T21:57:40.064Z,5.20
2023-01-30T22:00:09.842Z,5.10
2023-01-30T22:02:38.709Z,5.00
2023-01-30T22:05:08.336Z,5.00
2023-01-30T22:07:36.813Z,4.90
2023-01-30T22:10:07.182Z,4.90
2023-01-30T22:12:38.708Z,4.80
2023-01-30T22:15:08.293Z,4.80
2023-01-30T22:17:36.764Z,4.80
2023-01-30T22:20:05.748Z,4.80
2023-01-30T22:22:34.209Z,4.70
2023-01-30T22:25:02.695Z,4.80
2023-01-30T22:27:32.632Z,4.80
2023-01-30T22:30:01.129Z,4.70
2023-01-30T22:32:29.581Z,4.70
2023-01-30T22:34:58.092Z,4.70
2023-01-30T22:37:26.633Z,4.60
2023-01-30T22:39:55.151Z,4.70
2023-01-30T22:42:23.922Z,4.70
2023-01-30T22:44:53.783Z,4.70
2023-01-30T22:47:22.243Z,4.80
2023-01-30T22:49:51.053Z,4.80
2023-01-30T22:52:19.510Z,4.90
2023-01-30T22:54:48.603Z,4.90
2023-01-30T22:57:17.122Z,5.00
2023-01-30T22:59:52.140Z,5.10
2023-01-30T23:02:22.079Z,5.10
2023-01-30T23:04:50.639Z,5.00
2023-01-30T23:07:20.952Z,5.00
2023-01-30T23:09:49.573Z,4.90
2023-01-30T23:12:35.961Z,4.80
2023-01-30T23:15:04.797Z,4.80
2023-01-30T23:17:52.282Z,4.70
2023-01-30T23:20:39.489Z,4.60
2023-01-30T23:23:08.010Z,4.60
2023-01-30T23:25:41.642Z,4.50
2023-01-30T23:28:10.100Z,4.50
2023-01-30T23:30:39.114Z,4.40
2023-01-30T23:33:09.277Z,4.40
2023-01-30T23:35:38.131Z,4.40
2023-01-30T23:38:20.271Z,4.40
2023-01-30T23:40:49.912Z,4.40
2023-01-30T23:43:20.822Z,4.50
2023-01-30T23:45:49.309Z,4.60
2023-01-30T23:48:19.583Z,4.70
2023-01-30T23:50:48.170Z,4.70
2023-01-30T23:53:16.685Z,4.80
2023-01-30T23:55:52.369Z,4.80
2023-01-30T23:58:20.829Z,4.90
